Terminal Aerodrome Forecast
Issued by NWS

Home | Current Version | Previous Version | Text Only | Print | Product List | Glossary On
Versions: 1 2 3 4 5 6 7
000
FTUS44 KBMX 262300
TAFEET
TAF
KEET 262321Z 2700/2724 14003KT P6SM BKN150
     FM271500 13003KT P6SM OVC050
     FM272000 15005KT 5SM SHRA BR SCT015 OVC025=

USA.gov is the U.S. government's official web portal to all federal, state and local government web resources and services.